sensor_id;sensor_type;location;lat;lon;timestamp;temperature;humidity
32534;DHT22;18973;48.580;8.912;2022-12-10T00:00:37;2.60;99.90
32534;DHT22;18973;48.580;8.912;2022-12-10T00:03:03;2.70;99.90
32534;DHT22;18973;48.580;8.912;2022-12-10T00:05:29;2.60;99.90
32534;DHT22;18973;48.580;8.912;2022-12-10T00:07:55;2.50;99.90
32534;DHT22;18973;48.580;8.912;2022-12-10T00:10:20;2.50;99.90
32534;DHT22;18973;48.580;8.912;2022-12-10T00:12:46;2.50;99.90
32534;DHT22;18973;48.580;8.912;2022-12-10T00:15:12;2.50;99.90
32534;DHT22;18973;48.580;8.912;2022-12-10T00:17:37;2.60;99.90
32534;DHT22;18973;48.580;8.912;2022-12-10T00:20:03;2.60;99.90
32534;DHT22;18973;48.580;8.912;2022-12-10T00:22:29;2.50;99.90
32534;DHT22;18973;48.580;8.912;2022-12-10T00:24:55;2.50;99.90
32534;DHT22;18973;48.580;8.912;2022-12-10T00:27:20;2.50;99.90
32534;DHT22;18973;48.580;8.912;2022-12-10T00:29:46;2.50;99.90
32534;DHT22;18973;48.580;8.912;2022-12-10T00:32:12;2.50;99.90
32534;DHT22;18973;48.580;8.912;2022-12-10T00:34:37;2.50;99.90
32534;DHT22;18973;48.580;8.912;2022-12-10T00:37:03;2.50;99.90
32534;DHT22;18973;48.580;8.912;2022-12-10T00:39:29;2.50;99.90
32534;DHT22;18973;48.580;8.912;2022-12-10T00:41:55;2.50;99.90
32534;DHT22;18973;48.580;8.912;2022-12-10T00:44:20;2.50;99.90
32534;DHT22;18973;48.580;8.912;2022-12-10T00:46:46;2.50;99.90
32534;DHT22;18973;48.580;8.912;2022-12-10T00:49:12;2.30;99.90
32534;DHT22;18973;48.580;8.912;2022-12-10T00:51:39;2.30;99.90
32534;DHT22;18973;48.580;8.912;2022-12-10T00:54:05;2.40;99.90
32534;DHT22;18973;48.580;8.912;2022-12-10T00:56:32;2.40;99.90
32534;DHT22;18973;48.580;8.912;2022-12-10T00:58:58;2.50;99.90
32534;DHT22;18973;48.580;8.912;2022-12-10T01:01:27;2.50;99.90
32534;DHT22;18973;48.580;8.912;2022-12-10T01:03:56;2.30;99.90
32534;DHT22;18973;48.580;8.912;2022-12-10T01:08:50;2.40;99.90
32534;DHT22;18973;48.580;8.912;2022-12-10T01:11:18;2.40;99.90
32534;DHT22;18973;48.580;8.912;2022-12-10T01:13:44;2.50;99.90
32534;DHT22;18973;48.580;8.912;2022-12-10T01:16:12;2.50;99.90
32534;DHT22;18973;48.580;8.912;2022-12-10T01:18:38;2.50;99.90
32534;DHT22;18973;48.580;8.912;2022-12-10T01:21:10;2.50;99.90
32534;DHT22;18973;48.580;8.912;2022-12-10T01:23:38;2.50;99.90
32534;DHT22;18973;48.580;8.912;2022-12-10T01:26:07;2.30;99.90
32534;DHT22;18973;48.580;8.912;2022-12-10T01:28:35;2.20;99.90
32534;DHT22;18973;48.580;8.912;2022-12-10T01:31:09;2.30;99.90
32534;DHT22;18973;48.580;8.912;2022-12-10T01:33:35;2.40;99.90
32534;DHT22;18973;48.580;8.912;2022-12-10T01:36:07;2.40;99.90
32534;DHT22;18973;48.580;8.912;2022-12-10T01:38:33;2.30;99.90
32534;DHT22;18973;48.580;8.912;2022-12-10T01:41:00;2.20;99.90
32534;DHT22;18973;48.580;8.912;2022-12-10T01:43:26;2.20;99.90
32534;DHT22;18973;48.580;8.912;2022-12-10T01:45:52;2.20;99.90
32534;DHT22;18973;48.580;8.912;2022-12-10T01:48:19;2.30;99.90
32534;DHT22;18973;48.580;8.912;2022-12-10T01:50:44;2.30;99.90
32534;DHT22;18973;48.580;8.912;2022-12-10T01:53:12;2.30;99.90
32534;DHT22;18973;48.580;8.912;2022-12-10T01:55:45;2.40;99.90
32534;DHT22;18973;48.580;8.912;2022-12-10T01:58:12;2.40;99.90
32534;DHT22;18973;48.580;8.912;2022-12-10T02:00:49;2.40;99.90
32534;DHT22;18973;48.580;8.912;2022-12-10T02:03:33;2.50;99.90
32534;DHT22;18973;48.580;8.912;2022-12-10T02:18:09;2.40;99.90
32534;DHT22;18973;48.580;8.912;2022-12-10T02:20:38;2.50;99.90
32534;DHT22;18973;48.580;8.912;2022-12-10T02:23:25;2.40;99.90
32534;DHT22;18973;48.580;8.912;2022-12-10T02:26:10;2.30;99.90
32534;DHT22;18973;48.580;8.912;2022-12-10T02:31:11;2.00;99.90
32534;DHT22;18973;48.580;8.912;2022-12-10T02:33:44;2.10;99.90
32534;DHT22;18973;48.580;8.912;2022-12-10T02:36:13;2.00;99.90
32534;DHT22;18973;48.580;8.912;2022-12-10T02:38:40;1.90;99.90
32534;DHT22;18973;48.580;8.912;2022-12-10T02:41:20;1.90;99.90
32534;DHT22;18973;48.580;8.912;2022-12-10T02:43:49;1.90;99.90
32534;DHT22;18973;48.580;8.912;2022-12-10T02:46:16;1.80;99.90
32534;DHT22;18973;48.580;8.912;2022-12-10T02:48:42;1.80;99.90
32534;DHT22;18973;48.580;8.912;2022-12-10T02:51:09;1.80;99.90
32534;DHT22;18973;48.580;8.912;2022-12-10T02:53:44;1.90;99.90
32534;DHT22;18973;48.580;8.912;2022-12-10T02:56:30;2.00;99.90
32534;DHT22;18973;48.580;8.912;2022-12-10T02:59:47;2.20;99.90
32534;DHT22;18973;48.580;8.912;2022-12-10T03:02:15;2.10;99.90
32534;DHT22;18973;48.580;8.912;2022-12-10T03:04:46;2.10;99.90
32534;DHT22;18973;48.580;8.912;2022-12-10T03:07:18;2.10;99.90
32534;DHT22;18973;48.580;8.912;2022-12-10T03:09:54;2.10;99.90
32534;DHT22;18973;48.580;8.912;2022-12-10T03:12:26;2.10;99.90
32534;DHT22;18973;48.580;8.912;2022-12-10T03:14:58;2.20;99.90
32534;DHT22;18973;48.580;8.912;2022-12-10T03:17:24;2.30;99.90
32534;DHT22;18973;48.580;8.912;2022-12-10T03:19:51;2.30;99.90
32534;DHT22;18973;48.580;8.912;2022-12-10T03:22:19;2.30;99.90
32534;DHT22;18973;48.580;8.912;2022-12-10T03:24:46;2.20;99.90
32534;DHT22;18973;48.580;8.912;2022-12-10T03:27:14;2.20;99.90
32534;DHT22;18973;48.580;8.912;2022-12-10T03:29:52;2.20;99.90
32534;DHT22;18973;48.580;8.912;2022-12-10T03:32:20;2.30;99.90
32534;DHT22;18973;48.580;8.912;2022-12-10T03:34:47;2.30;99.90
32534;DHT22;18973;48.580;8.912;2022-12-10T03:37:14;2.30;99.90
32534;DHT22;18973;48.580;8.912;2022-12-10T03:39:40;2.30;99.90
32534;DHT22;18973;48.580;8.912;2022-12-10T03:42:07;2.40;99.90
32534;DHT22;18973;48.580;8.912;2022-12-10T03:44:36;2.40;99.90
32534;DHT22;18973;48.580;8.912;2022-12-10T03:47:04;2.40;99.90
32534;DHT22;18973;48.580;8.912;2022-12-10T03:49:31;2.40;99.90
32534;DHT22;18973;48.580;8.912;2022-12-10T03:51:56;2.40;99.90
32534;DHT22;18973;48.580;8.912;2022-12-10T03:54:22;2.50;99.90
32534;DHT22;18973;48.580;8.912;2022-12-10T03:56:48;2.40;99.90
32534;DHT22;18973;48.580;8.912;2022-12-10T03:59:14;2.50;99.90
32534;DHT22;18973;48.580;8.912;2022-12-10T04:01:40;2.50;99.90
32534;DHT22;18973;48.580;8.912;2022-12-10T04:04:06;2.50;99.90
32534;DHT22;18973;48.580;8.912;2022-12-10T04:06:32;2.50;99.90
32534;DHT22;18973;48.580;8.912;2022-12-10T04:08:57;2.50;99.90
32534;DHT22;18973;48.580;8.912;2022-12-10T04:11:23;2.50;99.90
32534;DHT22;18973;48.580;8.912;2022-12-10T04:13:50;2.50;99.90
32534;DHT22;18973;48.580;8.912;2022-12-10T04:16:35;2.50;99.90
32534;DHT22;18973;48.580;8.912;2022-12-10T04:19:10;2.60;99.90
32534;DHT22;18973;48.580;8.912;2022-12-10T04:21:37;2.50;99.90
32534;DHT22;18973;48.580;8.912;2022-12-10T04:24:24;2.40;99.90
32534;DHT22;18973;48.580;8.912;2022-12-10T04:27:22;2.40;99.90
32534;DHT22;18973;48.580;8.912;2022-12-10T04:29:48;2.50;99.90
32534;DHT22;18973;48.580;8.912;2022-12-10T04:32:15;2.50;99.90
32534;DHT22;18973;48.580;8.912;2022-12-10T04:34:41;2.50;99.90
32534;DHT22;18973;48.580;8.912;2022-12-10T04:37:06;2.50;99.90
32534;DHT22;18973;48.580;8.912;2022-12-10T04:39:32;2.50;99.90
32534;DHT22;18973;48.580;8.912;2022-12-10T04:42:00;2.50;99.90
32534;DHT22;18973;48.580;8.912;2022-12-10T04:44:26;2.50;99.90
32534;DHT22;18973;48.580;8.912;2022-12-10T04:46:52;2.40;99.90
32534;DHT22;18973;48.580;8.912;2022-12-10T04:49:18;2.30;99.90
32534;DHT22;18973;48.580;8.912;2022-12-10T04:51:44;2.40;99.90
32534;DHT22;18973;48.580;8.912;2022-12-10T04:54:10;2.40;99.90
32534;DHT22;18973;48.580;8.912;2022-12-10T04:56:36;2.50;99.90
32534;DHT22;18973;48.580;8.912;2022-12-10T04:59:03;2.50;99.90
32534;DHT22;18973;48.580;8.912;2022-12-10T05:01:29;2.50;99.90
32534;DHT22;18973;48.580;8.912;2022-12-10T05:03:58;2.50;99.90
32534;DHT22;18973;48.580;8.912;2022-12-10T05:06:24;2.50;99.90
32534;DHT22;18973;48.580;8.912;2022-12-10T05:08:50;2.30;99.90
32534;DHT22;18973;48.580;8.912;2022-12-10T05:11:17;2.10;99.90
32534;DHT22;18973;48.580;8.912;2022-12-10T05:13:44;2.20;99.90
32534;DHT22;18973;48.580;8.912;2022-12-10T05:16:11;2.30;99.90
32534;DHT22;18973;48.580;8.912;2022-12-10T05:18:37;2.30;99.90
32534;DHT22;18973;48.580;8.912;2022-12-10T05:21:06;2.30;99.90
32534;DHT22;18973;48.580;8.912;2022-12-10T05:23:34;2.40;99.90
32534;DHT22;18973;48.580;8.912;2022-12-10T05:26:27;2.20;99.90
32534;DHT22;18973;48.580;8.912;2022-12-10T05:28:54;2.20;99.90
32534;DHT22;18973;48.580;8.912;2022-12-10T05:31:25;2.30;99.90
32534;DHT22;18973;48.580;8.912;2022-12-10T05:33:52;2.20;99.90
32534;DHT22;18973;48.580;8.912;2022-12-10T05:36:20;2.20;99.90
32534;DHT22;18973;48.580;8.912;2022-12-10T05:38:47;2.00;99.90
32534;DHT22;18973;48.580;8.912;2022-12-10T05:41:21;2.00;99.90
32534;DHT22;18973;48.580;8.912;2022-12-10T05:43:49;2.00;99.90
32534;DHT22;18973;48.580;8.912;2022-12-10T05:46:23;1.90;99.90
32534;DHT22;18973;48.580;8.912;2022-12-10T05:48:49;1.90;99.90
32534;DHT22;18973;48.580;8.912;2022-12-10T05:51:25;1.90;99.90
32534;DHT22;18973;48.580;8.912;2022-12-10T05:53:52;1.90;99.90
32534;DHT22;18973;48.580;8.912;2022-12-10T05:56:20;2.00;99.90
32534;DHT22;18973;48.580;8.912;2022-12-10T05:58:49;2.00;99.90
32534;DHT22;18973;48.580;8.912;2022-12-10T06:01:18;1.90;99.90
32534;DHT22;18973;48.580;8.912;2022-12-10T06:03:44;1.90;99.90
32534;DHT22;18973;48.580;8.912;2022-12-10T06:06:11;1.90;99.90
32534;DHT22;18973;48.580;8.912;2022-12-10T06:08:36;1.90;99.90
32534;DHT22;18973;48.580;8.912;2022-12-10T06:11:07;1.80;99.90
32534;DHT22;18973;48.580;8.912;2022-12-10T06:13:34;1.80;99.90
32534;DHT22;18973;48.580;8.912;2022-12-10T06:16:10;1.70;99.90
32534;DHT22;18973;48.580;8.912;2022-12-10T06:18:36;1.70;99.90
32534;DHT22;18973;48.580;8.912;2022-12-10T06:21:06;1.70;99.90
32534;DHT22;18973;48.580;8.912;2022-12-10T06:23:34;1.70;99.90
32534;DHT22;18973;48.580;8.912;2022-12-10T06:26:07;1.60;99.90
32534;DHT22;18973;48.580;8.912;2022-12-10T06:28:35;1.60;99.90
32534;DHT22;18973;48.580;8.912;2022-12-10T06:31:01;1.40;99.90
32534;DHT22;18973;48.580;8.912;2022-12-10T06:33:27;1.50;99.90
32534;DHT22;18973;48.580;8.912;2022-12-10T06:35:53;1.50;99.90
32534;DHT22;18973;48.580;8.912;2022-12-10T06:38:19;1.40;99.90
32534;DHT22;18973;48.580;8.912;2022-12-10T06:40:44;1.40;99.90
32534;DHT22;18973;48.580;8.912;2022-12-10T06:43:10;1.40;99.90
32534;DHT22;18973;48.580;8.912;2022-12-10T06:45:40;1.40;99.90
32534;DHT22;18973;48.580;8.912;2022-12-10T06:48:06;1.40;99.90
32534;DHT22;18973;48.580;8.912;2022-12-10T06:50:32;1.30;99.90
32534;DHT22;18973;48.580;8.912;2022-12-10T06:52:58;1.30;99.90
32534;DHT22;18973;48.580;8.912;2022-12-10T06:55:23;1.40;99.90
32534;DHT22;18973;48.580;8.912;2022-12-10T06:57:53;1.50;99.90
32534;DHT22;18973;48.580;8.912;2022-12-10T07:00:19;1.50;99.90
32534;DHT22;18973;48.580;8.912;2022-12-10T07:02:45;1.30;99.90
32534;DHT22;18973;48.580;8.912;2022-12-10T07:05:11;1.20;99.90
32534;DHT22;18973;48.580;8.912;2022-12-10T07:07:37;1.10;99.90
32534;DHT22;18973;48.580;8.912;2022-12-10T07:10:04;1.10;99.90
32534;DHT22;18973;48.580;8.912;2022-12-10T07:12:30;1.10;99.90
32534;DHT22;18973;48.580;8.912;2022-12-10T07:14:55;1.00;99.90
32534;DHT22;18973;48.580;8.912;2022-12-10T07:17:21;1.10;99.90
32534;DHT22;18973;48.580;8.912;2022-12-10T07:19:47;1.20;99.90
32534;DHT22;18973;48.580;8.912;2022-12-10T07:22:12;1.00;99.90
32534;DHT22;18973;48.580;8.912;2022-12-10T07:24:38;1.10;99.90
32534;DHT22;18973;48.580;8.912;2022-12-10T07:27:06;1.10;99.90
32534;DHT22;18973;48.580;8.912;2022-12-10T07:29:31;1.10;99.90
32534;DHT22;18973;48.580;8.912;2022-12-10T07:31:57;1.10;99.90
32534;DHT22;18973;48.580;8.912;2022-12-10T07:34:23;1.10;99.90
32534;DHT22;18973;48.580;8.912;2022-12-10T07:36:48;1.10;99.90
32534;DHT22;18973;48.580;8.912;2022-12-10T07:39:15;1.00;99.90
32534;DHT22;18973;48.580;8.912;2022-12-10T07:41:50;1.00;99.90
32534;DHT22;18973;48.580;8.912;2022-12-10T07:44:18;1.10;99.90
32534;DHT22;18973;48.580;8.912;2022-12-10T07:46:47;1.10;99.90
32534;DHT22;18973;48.580;8.912;2022-12-10T07:49:13;1.10;99.90
32534;DHT22;18973;48.580;8.912;2022-12-10T07:51:39;1.10;99.90
32534;DHT22;18973;48.580;8.912;2022-12-10T07:54:05;1.10;99.90
32534;DHT22;18973;48.580;8.912;2022-12-10T07:56:30;1.10;99.90
32534;DHT22;18973;48.580;8.912;2022-12-10T07:58:56;1.00;99.90
32534;DHT22;18973;48.580;8.912;2022-12-10T08:01:24;1.10;99.90
32534;DHT22;18973;48.580;8.912;2022-12-10T08:03:52;1.20;99.90
32534;DHT22;18973;48.580;8.912;2022-12-10T08:06:20;1.30;99.90
32534;DHT22;18973;48.580;8.912;2022-12-10T08:08:46;1.30;99.90
32534;DHT22;18973;48.580;8.912;2022-12-10T08:11:14;1.30;99.90
32534;DHT22;18973;48.580;8.912;2022-12-10T08:13:41;1.20;99.90
32534;DHT22;18973;48.580;8.912;2022-12-10T08:16:19;1.20;99.90
32534;DHT22;18973;48.580;8.912;2022-12-10T08:18:46;1.30;99.90
32534;DHT22;18973;48.580;8.912;2022-12-10T08:21:23;1.30;99.90
32534;DHT22;18973;48.580;8.912;2022-12-10T08:23:49;1.20;99.90
32534;DHT22;18973;48.580;8.912;2022-12-10T08:26:20;1.30;99.90
32534;DHT22;18973;48.580;8.912;2022-12-10T08:28:48;1.30;99.90
32534;DHT22;18973;48.580;8.912;2022-12-10T08:31:16;1.30;99.90
32534;DHT22;18973;48.580;8.912;2022-12-10T08:33:42;1.30;99.90
32534;DHT22;18973;48.580;8.912;2022-12-10T08:36:10;1.20;99.90
32534;DHT22;18973;48.580;8.912;2022-12-10T08:38:36;1.30;99.90
32534;DHT22;18973;48.580;8.912;2022-12-10T08:41:10;1.30;99.90
32534;DHT22;18973;48.580;8.912;2022-12-10T08:43:37;1.30;99.90
32534;DHT22;18973;48.580;8.912;2022-12-10T08:46:03;1.40;99.90
32534;DHT22;18973;48.580;8.912;2022-12-10T08:48:29;1.30;99.90
32534;DHT22;18973;48.580;8.912;2022-12-10T08:50:54;1.50;99.90
32534;DHT22;18973;48.580;8.912;2022-12-10T08:53:20;1.40;99.90
32534;DHT22;18973;48.580;8.912;2022-12-10T08:55:49;1.40;99.90
32534;DHT22;18973;48.580;8.912;2022-12-10T08:58:16;1.50;99.90
32534;DHT22;18973;48.580;8.912;2022-12-10T09:00:42;1.50;99.90
32534;DHT22;18973;48.580;8.912;2022-12-10T09:03:08;1.60;99.90
32534;DHT22;18973;48.580;8.912;2022-12-10T09:05:35;1.70;99.90
32534;DHT22;18973;48.580;8.912;2022-12-10T09:08:01;1.70;99.90
32534;DHT22;18973;48.580;8.912;2022-12-10T09:10:27;2.40;99.90
32534;DHT22;18973;48.580;8.912;2022-12-10T09:12:52;2.20;99.90
32534;DHT22;18973;48.580;8.912;2022-12-10T09:15:18;2.10;99.90
32534;DHT22;18973;48.580;8.912;2022-12-10T09:17:44;2.00;99.90
32534;DHT22;18973;48.580;8.912;2022-12-10T09:20:10;1.80;99.90
32534;DHT22;18973;48.580;8.912;2022-12-10T09:22:35;1.80;99.90
32534;DHT22;18973;48.580;8.912;2022-12-10T09:25:06;1.80;99.90
32534;DHT22;18973;48.580;8.912;2022-12-10T09:27:32;1.70;99.90
32534;DHT22;18973;48.580;8.912;2022-12-10T09:29:58;1.70;99.90
32534;DHT22;18973;48.580;8.912;2022-12-10T09:32:24;1.60;99.90
32534;DHT22;18973;48.580;8.912;2022-12-10T09:34:53;1.60;99.90
32534;DHT22;18973;48.580;8.912;2022-12-10T09:37:19;1.60;99.90
32534;DHT22;18973;48.580;8.912;2022-12-10T09:39:45;1.60;99.90
32534;DHT22;18973;48.580;8.912;2022-12-10T09:45:14;1.50;99.90
32534;DHT22;18973;48.580;8.912;2022-12-10T09:47:40;1.40;99.90
32534;DHT22;18973;48.580;8.912;2022-12-10T09:50:19;1.50;99.90
32534;DHT22;18973;48.580;8.912;2022-12-10T09:52:47;1.60;99.90
32534;DHT22;18973;48.580;8.912;2022-12-10T09:55:36;1.60;99.90
32534;DHT22;18973;48.580;8.912;2022-12-10T09:58:04;1.60;99.90
32534;DHT22;18973;48.580;8.912;2022-12-10T10:00:39;1.60;99.90
32534;DHT22;18973;48.580;8.912;2022-12-10T10:03:06;1.60;99.90
32534;DHT22;18973;48.580;8.912;2022-12-10T10:08:01;1.60;99.90
32534;DHT22;18973;48.580;8.912;2022-12-10T10:10:39;1.60;99.90
32534;DHT22;18973;48.580;8.912;2022-12-10T10:15:36;1.50;99.90
32534;DHT22;18973;48.580;8.912;2022-12-10T10:18:39;1.60;99.90
32534;DHT22;18973;48.580;8.912;2022-12-10T10:21:17;1.60;99.90
32534;DHT22;18973;48.580;8.912;2022-12-10T10:23:46;1.50;99.90
32534;DHT22;18973;48.580;8.912;2022-12-10T10:26:12;1.60;99.90
32534;DHT22;18973;48.580;8.912;2022-12-10T10:28:40;1.70;99.90
32534;DHT22;18973;48.580;8.912;2022-12-10T10:31:22;1.80;99.90
32534;DHT22;18973;48.580;8.912;2022-12-10T10:33:56;1.90;99.90
32534;DHT22;18973;48.580;8.912;2022-12-10T10:36:34;2.40;99.90
32534;DHT22;18973;48.580;8.912;2022-12-10T10:39:28;2.30;99.90
32534;DHT22;18973;48.580;8.912;2022-12-10T10:41:56;2.40;99.90
32534;DHT22;18973;48.580;8.912;2022-12-10T10:44:24;2.40;99.90
32534;DHT22;18973;48.580;8.912;2022-12-10T10:46:54;2.40;99.90
32534;DHT22;18973;48.580;8.912;2022-12-10T10:49:28;2.40;99.90
32534;DHT22;18973;48.580;8.912;2022-12-10T10:52:21;2.30;99.90
32534;DHT22;18973;48.580;8.912;2022-12-10T10:54:48;2.20;99.90
32534;DHT22;18973;48.580;8.912;2022-12-10T10:59:46;2.20;99.90
32534;DHT22;18973;48.580;8.912;2022-12-10T11:02:30;2.30;99.90
32534;DHT22;18973;48.580;8.912;2022-12-10T11:04:57;2.40;99.90
32534;DHT22;18973;48.580;8.912;2022-12-10T11:09:55;2.50;99.90
32534;DHT22;18973;48.580;8.912;2022-12-10T11:12:39;2.60;99.90
32534;DHT22;18973;48.580;8.912;2022-12-10T11:15:29;2.60;99.90
32534;DHT22;18973;48.580;8.912;2022-12-10T11:17:56;2.60;99.90
32534;DHT22;18973;48.580;8.912;2022-12-10T11:23:18;2.80;99.90
32534;DHT22;18973;48.580;8.912;2022-12-10T11:26:01;2.80;99.90
32534;DHT22;18973;48.580;8.912;2022-12-10T11:31:31;2.80;99.90
32534;DHT22;18973;48.580;8.912;2022-12-10T11:34:18;2.90;99.90
32534;DHT22;18973;48.580;8.912;2022-12-10T11:37:03;2.90;99.90
32534;DHT22;18973;48.580;8.912;2022-12-10T11:47:29;5.20;99.90
32534;DHT22;18973;48.580;8.912;2022-12-10T11:50:32;4.80;99.90
32534;DHT22;18973;48.580;8.912;2022-12-10T12:12:19;3.00;99.90
32534;DHT22;18973;48.580;8.912;2022-12-10T12:14:48;3.10;99.90
32534;DHT22;18973;48.580;8.912;2022-12-10T12:17:22;3.10;99.90
32534;DHT22;18973;48.580;8.912;2022-12-10T12:20:00;3.00;99.90
32534;DHT22;18973;48.580;8.912;2022-12-10T12:22:31;3.00;99.90
32534;DHT22;18973;48.580;8.912;2022-12-10T12:25:02;3.00;99.90
32534;DHT22;18973;48.580;8.912;2022-12-10T12:27:41;3.00;99.90
32534;DHT22;18973;48.580;8.912;2022-12-10T12:30:22;3.00;99.90
32534;DHT22;18973;48.580;8.912;2022-12-10T12:33:02;3.00;99.90
32534;DHT22;18973;48.580;8.912;2022-12-10T12:35:49;3.00;99.90
32534;DHT22;18973;48.580;8.912;2022-12-10T12:38:32;3.00;99.90
32534;DHT22;18973;48.580;8.912;2022-12-10T12:41:05;3.10;99.90
32534;DHT22;18973;48.580;8.912;2022-12-10T12:46:14;3.00;99.90
32534;DHT22;18973;48.580;8.912;2022-12-10T12:48:55;3.10;99.90
32534;DHT22;18973;48.580;8.912;2022-12-10T12:51:42;3.10;99.90
32534;DHT22;18973;48.580;8.912;2022-12-10T12:54:11;3.00;99.90
32534;DHT22;18973;48.580;8.912;2022-12-10T12:57:18;3.00;99.90
32534;DHT22;18973;48.580;8.912;2022-12-10T13:03:00;2.80;99.90
32534;DHT22;18973;48.580;8.912;2022-12-10T13:05:34;2.80;99.90
32534;DHT22;18973;48.580;8.912;2022-12-10T13:08:25;2.70;99.90
32534;DHT22;18973;48.580;8.912;2022-12-10T13:10:57;2.60;99.90
32534;DHT22;18973;48.580;8.912;2022-12-10T13:15:50;2.70;99.90
32534;DHT22;18973;48.580;8.912;2022-12-10T13:21:31;2.60;99.90
32534;DHT22;18973;48.580;8.912;2022-12-10T13:24:04;2.70;99.90
32534;DHT22;18973;48.580;8.912;2022-12-10T13:26:31;2.70;99.90
32534;DHT22;18973;48.580;8.912;2022-12-10T13:31:55;2.60;99.90
32534;DHT22;18973;48.580;8.912;2022-12-10T13:34:36;2.60;99.90
32534;DHT22;18973;48.580;8.912;2022-12-10T13:50:17;2.50;99.90
32534;DHT22;18973;48.580;8.912;2022-12-10T13:55:57;2.50;99.90
32534;DHT22;18973;48.580;8.912;2022-12-10T14:01:20;2.50;99.90
32534;DHT22;18973;48.580;8.912;2022-12-10T14:06:38;2.50;99.90
32534;DHT22;18973;48.580;8.912;2022-12-10T14:09:06;2.60;99.90
32534;DHT22;18973;48.580;8.912;2022-12-10T14:11:51;2.60;99.90
32534;DHT22;18973;48.580;8.912;2022-12-10T14:14:26;2.60;99.90
32534;DHT22;18973;48.580;8.912;2022-12-10T14:16:54;2.50;99.90
32534;DHT22;18973;48.580;8.912;2022-12-10T14:19:21;2.50;99.90
32534;DHT22;18973;48.580;8.912;2022-12-10T14:21:49;2.50;99.90
32534;DHT22;18973;48.580;8.912;2022-12-10T14:24:34;2.40;99.90
32534;DHT22;18973;48.580;8.912;2022-12-10T14:27:24;2.50;99.90
32534;DHT22;18973;48.580;8.912;2022-12-10T14:30:02;2.40;99.90
32534;DHT22;18973;48.580;8.912;2022-12-10T14:32:35;2.40;99.90
32534;DHT22;18973;48.580;8.912;2022-12-10T14:35:04;2.30;99.90
32534;DHT22;18973;48.580;8.912;2022-12-10T14:37:33;2.40;99.90
32534;DHT22;18973;48.580;8.912;2022-12-10T14:40:00;2.40;99.90
32534;DHT22;18973;48.580;8.912;2022-12-10T14:42:27;2.30;99.90
32534;DHT22;18973;48.580;8.912;2022-12-10T14:45:03;2.20;99.90
32534;DHT22;18973;48.580;8.912;2022-12-10T14:47:37;2.10;99.90
32534;DHT22;18973;48.580;8.912;2022-12-10T14:50:10;2.20;99.90
32534;DHT22;18973;48.580;8.912;2022-12-10T14:52:42;2.20;99.90
32534;DHT22;18973;48.580;8.912;2022-12-10T14:55:13;2.20;99.90
32534;DHT22;18973;48.580;8.912;2022-12-10T14:57:43;2.20;99.90
32534;DHT22;18973;48.580;8.912;2022-12-10T15:00:21;2.20;99.90
32534;DHT22;18973;48.580;8.912;2022-12-10T15:02:55;2.10;99.90
32534;DHT22;18973;48.580;8.912;2022-12-10T15:05:25;2.60;99.90
32534;DHT22;18973;48.580;8.912;2022-12-10T15:08:02;2.90;99.90
32534;DHT22;18973;48.580;8.912;2022-12-10T15:10:39;2.70;99.90
32534;DHT22;18973;48.580;8.912;2022-12-10T15:13:07;2.90;99.90
32534;DHT22;18973;48.580;8.912;2022-12-10T15:15:39;2.80;99.90
32534;DHT22;18973;48.580;8.912;2022-12-10T15:20:45;2.60;99.90
32534;DHT22;18973;48.580;8.912;2022-12-10T15:28:29;2.30;99.90
32534;DHT22;18973;48.580;8.912;2022-12-10T15:31:27;2.10;99.90
32534;DHT22;18973;48.580;8.912;2022-12-10T15:33:55;2.10;99.90
32534;DHT22;18973;48.580;8.912;2022-12-10T15:36:39;2.10;99.90
32534;DHT22;18973;48.580;8.912;2022-12-10T15:39:15;2.00;99.90
32534;DHT22;18973;48.580;8.912;2022-12-10T15:42:05;2.00;99.90
32534;DHT22;18973;48.580;8.912;2022-12-10T15:44:36;1.90;99.90
32534;DHT22;18973;48.580;8.912;2022-12-10T15:49:36;1.70;99.90
32534;DHT22;18973;48.580;8.912;2022-12-10T15:52:02;1.60;99.90
32534;DHT22;18973;48.580;8.912;2022-12-10T15:54:36;1.60;99.90
32534;DHT22;18973;48.580;8.912;2022-12-10T15:57:19;1.60;99.90
32534;DHT22;18973;48.580;8.912;2022-12-10T15:59:48;1.60;99.90
32534;DHT22;18973;48.580;8.912;2022-12-10T16:05:06;1.50;99.90
32534;DHT22;18973;48.580;8.912;2022-12-10T16:07:36;1.30;99.90
32534;DHT22;18973;48.580;8.912;2022-12-10T16:10:03;1.30;99.90
32534;DHT22;18973;48.580;8.912;2022-12-10T16:12:29;1.30;99.90
32534;DHT22;18973;48.580;8.912;2022-12-10T16:14:56;1.20;99.90
32534;DHT22;18973;48.580;8.912;2022-12-10T16:17:26;1.30;99.90
32534;DHT22;18973;48.580;8.912;2022-12-10T16:19:53;1.30;99.90
32534;DHT22;18973;48.580;8.912;2022-12-10T16:22:21;1.20;99.90
32534;DHT22;18973;48.580;8.912;2022-12-10T16:24:47;1.20;99.90
32534;DHT22;18973;48.580;8.912;2022-12-10T16:27:14;1.10;99.90
32534;DHT22;18973;48.580;8.912;2022-12-10T16:29:41;1.10;99.90
32534;DHT22;18973;48.580;8.912;2022-12-10T16:32:11;1.10;99.90
32534;DHT22;18973;48.580;8.912;2022-12-10T16:34:37;1.10;99.90
32534;DHT22;18973;48.580;8.912;2022-12-10T16:37:03;1.10;99.90
32534;DHT22;18973;48.580;8.912;2022-12-10T16:39:29;1.20;99.90
32534;DHT22;18973;48.580;8.912;2022-12-10T16:41:55;1.10;99.90
32534;DHT22;18973;48.580;8.912;2022-12-10T16:44:21;1.00;99.90
32534;DHT22;18973;48.580;8.912;2022-12-10T16:46:46;1.00;99.90
32534;DHT22;18973;48.580;8.912;2022-12-10T16:49:12;1.00;99.90
32534;DHT22;18973;48.580;8.912;2022-12-10T16:51:38;1.00;99.90
32534;DHT22;18973;48.580;8.912;2022-12-10T16:54:04;1.00;99.90
32534;DHT22;18973;48.580;8.912;2022-12-10T16:56:30;1.00;99.90
32534;DHT22;18973;48.580;8.912;2022-12-10T16:58:56;0.90;99.90
32534;DHT22;18973;48.580;8.912;2022-12-10T17:01:25;0.90;99.90
32534;DHT22;18973;48.580;8.912;2022-12-10T17:03:54;0.90;99.90
32534;DHT22;18973;48.580;8.912;2022-12-10T17:06:21;1.00;99.90
32534;DHT22;18973;48.580;8.912;2022-12-10T17:08:48;0.80;99.90
32534;DHT22;18973;48.580;8.912;2022-12-10T17:11:38;0.80;99.90
32534;DHT22;18973;48.580;8.912;2022-12-10T17:14:27;0.90;99.90
32534;DHT22;18973;48.580;8.912;2022-12-10T17:16:56;1.00;99.90
32534;DHT22;18973;48.580;8.912;2022-12-10T17:19:24;1.00;99.90
32534;DHT22;18973;48.580;8.912;2022-12-10T17:21:51;1.00;99.90
32534;DHT22;18973;48.580;8.912;2022-12-10T17:24:17;0.90;99.90
32534;DHT22;18973;48.580;8.912;2022-12-10T17:26:45;0.90;99.90
32534;DHT22;18973;48.580;8.912;2022-12-10T17:31:46;0.80;99.90
32534;DHT22;18973;48.580;8.912;2022-12-10T17:34:12;0.80;99.90
32534;DHT22;18973;48.580;8.912;2022-12-10T17:36:39;0.80;99.90
32534;DHT22;18973;48.580;8.912;2022-12-10T17:39:06;0.90;99.90
32534;DHT22;18973;48.580;8.912;2022-12-10T17:41:32;0.80;99.90
32534;DHT22;18973;48.580;8.912;2022-12-10T17:43:58;0.90;99.90
32534;DHT22;18973;48.580;8.912;2022-12-10T17:46:25;0.90;99.90
32534;DHT22;18973;48.580;8.912;2022-12-10T17:48:52;0.90;99.90
32534;DHT22;18973;48.580;8.912;2022-12-10T17:51:18;1.00;99.90
32534;DHT22;18973;48.580;8.912;2022-12-10T17:53:44;0.90;99.90
32534;DHT22;18973;48.580;8.912;2022-12-10T17:56:21;0.80;99.90
32534;DHT22;18973;48.580;8.912;2022-12-10T17:58:49;0.90;99.90